createdAt,value
2019-02-04T00:01:35.950Z,3.800000
2019-02-04T00:04:06.362Z,3.600000
2019-02-04T00:06:36.745Z,3.600000
2019-02-04T00:09:07.140Z,4.200000
2019-02-04T00:11:37.532Z,4.200000
2019-02-04T00:14:07.937Z,3.900000
2019-02-04T00:16:40.960Z,3.900000
2019-02-04T00:19:11.710Z,3.200000
2019-02-04T00:21:42.151Z,3.200000
2019-02-04T00:24:12.486Z,3.100000
2019-02-04T00:26:51.328Z,3.100000
2019-02-04T00:29:22.321Z,3.500000
2019-02-04T00:31:52.604Z,3.500000
2019-02-04T00:34:23.022Z,3.400000
2019-02-04T00:36:53.288Z,3.400000
2019-02-04T00:39:23.869Z,3.500000
2019-02-04T00:41:54.245Z,3.500000
2019-02-04T00:44:24.599Z,3.000000
2019-02-04T00:46:55.005Z,3.000000
2019-02-04T00:49:25.284Z,2.800000
2019-02-04T00:51:55.728Z,2.800000
2019-02-04T00:54:26.035Z,2.700000
2019-02-04T00:56:56.540Z,2.700000
2019-02-04T00:59:26.948Z,2.800000
2019-02-04T01:01:57.309Z,2.800000
2019-02-04T01:04:27.690Z,2.600000
2019-02-04T01:06:58.305Z,2.600000
2019-02-04T01:09:28.583Z,2.400000
2019-02-04T01:11:58.976Z,2.400000
2019-02-04T01:14:29.483Z,3.000000
2019-02-04T01:17:03.396Z,3.000000
2019-02-04T01:19:34.332Z,3.000000
2019-02-04T01:22:04.724Z,3.000000
2019-02-04T01:24:35.215Z,3.300000
2019-02-04T01:27:05.621Z,3.300000
2019-02-04T01:29:36.099Z,3.000000
2019-02-04T01:32:06.583Z,3.000000
2019-02-04T01:34:37.070Z,2.900000
2019-02-04T01:37:07.438Z,2.900000
2019-02-04T01:39:37.816Z,2.800000
2019-02-04T01:42:08.205Z,2.800000
2019-02-04T01:44:38.987Z,3.300000
2019-02-04T01:47:14.753Z,3.300000
2019-02-04T01:49:45.323Z,3.200000
2019-02-04T01:52:15.778Z,3.200000
2019-02-04T01:54:46.018Z,3.700000
2019-02-04T01:57:16.709Z,3.700000
2019-02-04T01:59:47.095Z,3.800000
2019-02-04T02:02:17.398Z,3.800000
2019-02-04T02:04:47.801Z,3.600000
2019-02-04T02:07:18.090Z,3.600000
2019-02-04T02:09:48.792Z,3.800000
2019-02-04T02:12:19.222Z,3.200000
2019-02-04T02:14:49.699Z,3.200000
2019-02-04T02:17:26.371Z,3.300000
2019-02-04T02:19:57.086Z,3.300000
2019-02-04T02:22:27.678Z,4.100000
2019-02-04T02:24:58.055Z,4.100000
2019-02-04T02:27:28.361Z,3.700000
2019-02-04T02:29:58.786Z,3.700000
2019-02-04T02:32:29.221Z,5.000000
2019-02-04T02:34:59.917Z,5.000000
2019-02-04T02:37:30.329Z,4.700000
2019-02-04T02:40:00.671Z,4.700000
2019-02-04T02:42:31.060Z,5.200000
2019-02-04T02:45:01.446Z,5.200000
2019-02-04T02:47:38.395Z,5.900000
2019-02-04T02:50:09.273Z,5.900000
2019-02-04T02:52:39.557Z,4.400000
2019-02-04T02:55:10.049Z,4.400000
2019-02-04T02:57:40.527Z,5.700000
2019-02-04T03:00:10.977Z,5.700000
2019-02-04T03:02:41.301Z,5.100000
2019-02-04T03:05:11.741Z,5.100000
2019-02-04T03:07:47.128Z,5.000000
2019-02-04T03:10:17.474Z,5.000000
2019-02-04T03:12:53.266Z,4.400000
2019-02-04T03:15:23.595Z,4.400000
2019-02-04T03:17:54.077Z,5.300000
2019-02-04T03:20:24.463Z,5.300000
2019-02-04T03:22:54.955Z,4.400000
2019-02-04T03:25:25.738Z,4.400000
2019-02-04T03:27:56.150Z,5.200000
2019-02-04T03:30:26.538Z,5.200000
2019-02-04T03:32:56.940Z,5.200000
2019-02-04T03:35:32.386Z,5.200000
2019-02-04T03:38:02.982Z,5.300000
2019-02-04T03:40:33.266Z,5.300000
2019-02-04T03:43:03.546Z,4.100000
2019-02-04T03:45:33.953Z,4.100000
2019-02-04T03:48:07.359Z,5.800000
2019-02-04T03:50:39.589Z,5.800000
2019-02-04T03:53:09.962Z,6.000000
2019-02-04T03:55:40.343Z,6.000000
2019-02-04T03:58:10.746Z,5.200000
2019-02-04T04:00:41.033Z,5.200000
2019-02-04T04:03:11.598Z,6.200000
2019-02-04T04:05:41.999Z,6.200000
2019-02-04T04:08:12.554Z,5.800000
2019-02-04T04:10:42.808Z,5.800000
2019-02-04T04:13:13.094Z,5.100000
2019-02-04T04:15:43.768Z,5.100000
2019-02-04T04:18:16.033Z,6.000000
2019-02-04T04:20:46.523Z,6.000000
2019-02-04T04:23:16.850Z,5.200000
2019-02-04T04:25:47.178Z,5.200000
2019-02-04T04:28:17.565Z,6.100000
2019-02-04T04:30:47.995Z,6.100000
2019-02-04T04:33:18.327Z,5.900000
2019-02-04T04:35:48.664Z,5.900000
2019-02-04T04:38:19.034Z,6.700000
2019-02-04T04:40:49.424Z,6.700000
2019-02-04T04:43:19.839Z,6.300000
2019-02-04T04:45:50.181Z,6.300000
2019-02-04T04:48:26.764Z,4.600000
2019-02-04T04:50:57.221Z,4.600000
2019-02-04T04:53:27.573Z,6.400000
2019-02-04T04:55:57.942Z,6.400000
2019-02-04T04:58:28.404Z,7.100000
2019-02-04T05:00:58.786Z,7.100000
2019-02-04T05:03:29.260Z,6.000000
2019-02-04T05:05:59.802Z,6.000000
2019-02-04T05:08:30.410Z,6.400000
2019-02-04T05:11:00.792Z,6.400000
2019-02-04T05:13:31.306Z,5.600000
2019-02-04T05:16:01.672Z,5.600000
2019-02-04T05:18:38.319Z,5.700000
2019-02-04T05:21:09.842Z,5.700000
2019-02-04T05:23:42.327Z,5.600000
2019-02-04T05:26:12.647Z,5.600000
2019-02-04T05:28:42.996Z,6.200000
2019-02-04T05:31:13.549Z,6.200000
2019-02-04T05:33:43.894Z,6.200000
2019-02-04T05:36:14.321Z,6.700000
2019-02-04T05:38:44.659Z,6.700000
2019-02-04T05:41:14.932Z,6.100000
2019-02-04T05:43:45.282Z,6.100000
2019-02-04T05:46:15.973Z,5.600000
2019-02-04T05:48:49.571Z,5.600000
2019-02-04T05:51:20.101Z,6.300000
2019-02-04T05:53:50.583Z,6.300000
2019-02-04T05:56:21.071Z,6.300000
2019-02-04T05:58:51.729Z,6.300000
2019-02-04T06:01:22.082Z,5.600000
2019-02-04T06:03:52.463Z,5.600000
2019-02-04T06:06:22.759Z,6.700000
2019-02-04T06:08:53.211Z,6.700000
2019-02-04T06:11:23.586Z,6.600000
2019-02-04T06:13:53.959Z,6.600000
2019-02-04T06:16:24.419Z,7.000000
2019-02-04T06:19:01.026Z,7.000000
2019-02-04T06:21:31.986Z,5.800000
2019-02-04T06:24:02.721Z,5.800000
2019-02-04T06:26:33.016Z,4.900000
2019-02-04T06:29:03.491Z,4.900000
2019-02-04T06:31:33.774Z,6.400000
2019-02-04T06:34:04.142Z,6.400000
2019-02-04T06:36:34.501Z,5.800000
2019-02-04T06:39:04.779Z,5.800000
2019-02-04T06:41:35.153Z,7.600000
2019-02-04T06:44:05.629Z,7.600000
2019-02-04T06:46:36.022Z,7.100000
2019-02-04T06:49:12.372Z,7.100000
2019-02-04T06:51:43.019Z,6.600000
2019-02-04T06:54:13.308Z,6.600000
2019-02-04T06:56:43.749Z,5.700000
2019-02-04T06:59:14.112Z,5.700000
2019-02-04T07:01:44.492Z,6.600000
2019-02-04T07:04:14.771Z,6.600000
2019-02-04T07:06:45.040Z,6.700000
2019-02-04T07:09:15.325Z,6.700000
2019-02-04T07:11:45.803Z,5.400000
2019-02-04T07:14:16.249Z,5.400000
2019-02-04T07:16:47.017Z,6.900000
2019-02-04T07:19:24.339Z,6.900000
2019-02-04T07:21:55.093Z,6.900000
2019-02-04T07:24:25.566Z,6.900000
2019-02-04T07:26:55.837Z,6.900000
2019-02-04T07:29:26.538Z,6.900000
2019-02-04T07:31:57.023Z,5.100000
2019-02-04T07:34:27.404Z,5.100000
2019-02-04T07:36:57.783Z,6.700000
2019-02-04T07:39:28.153Z,6.700000
2019-02-04T07:41:58.719Z,6.800000
2019-02-04T07:44:29.220Z,6.800000
2019-02-04T07:46:59.722Z,5.200000
2019-02-04T07:49:35.227Z,5.200000
2019-02-04T07:52:05.934Z,6.200000
2019-02-04T07:54:36.231Z,6.200000
2019-02-04T07:57:06.637Z,5.300000
2019-02-04T07:59:36.987Z,5.300000
2019-02-04T08:02:07.574Z,5.000000
2019-02-04T08:04:37.983Z,5.000000
2019-02-04T08:07:08.270Z,6.200000
2019-02-04T08:09:38.771Z,6.200000
2019-02-04T08:12:09.065Z,5.300000
2019-02-04T08:14:39.329Z,5.300000
2019-02-04T08:17:09.831Z,5.400000
2019-02-04T08:19:47.365Z,5.400000
2019-02-04T08:22:17.877Z,5.200000
2019-02-04T08:24:48.320Z,5.200000
2019-02-04T08:27:18.777Z,4.600000
2019-02-04T08:29:49.266Z,4.600000
2019-02-04T08:32:19.682Z,5.100000
2019-02-04T08:34:50.262Z,5.100000
2019-02-04T08:37:20.560Z,4.100000
2019-02-04T08:39:50.970Z,4.100000
2019-02-04T08:42:21.280Z,4.100000
2019-02-04T08:44:51.758Z,4.100000
2019-02-04T08:47:23.098Z,4.800000
2019-02-04T08:49:58.337Z,4.800000
2019-02-04T08:52:29.035Z,5.300000
2019-02-04T08:54:59.473Z,5.300000
2019-02-04T08:57:29.829Z,4.000000
2019-02-04T09:00:00.448Z,4.000000
2019-02-04T09:02:31.027Z,5.100000
2019-02-04T09:05:01.414Z,5.100000
2019-02-04T09:07:31.816Z,4.400000
2019-02-04T09:10:02.206Z,4.400000
2019-02-04T09:12:32.519Z,4.900000
2019-02-04T09:15:02.998Z,4.600000
2019-02-04T09:17:33.721Z,4.600000
2019-02-04T09:20:10.143Z,4.500000
2019-02-04T09:22:40.773Z,4.500000
2019-02-04T09:25:11.282Z,4.900000
2019-02-04T09:27:41.615Z,4.900000
2019-02-04T09:30:12.225Z,4.900000
2019-02-04T09:32:42.590Z,4.900000
2019-02-04T09:35:13.038Z,4.600000
2019-02-04T09:37:43.350Z,4.600000
2019-02-04T09:40:13.676Z,4.400000
2019-02-04T09:42:43.988Z,4.400000
2019-02-04T09:45:14.297Z,5.100000
2019-02-04T09:47:44.612Z,5.100000
2019-02-04T09:50:21.763Z,4.100000
2019-02-04T09:52:52.507Z,4.100000
2019-02-04T09:55:22.999Z,3.400000
2019-02-04T09:57:53.487Z,3.400000
2019-02-04T10:00:23.791Z,3.800000
2019-02-04T10:02:54.222Z,3.800000
2019-02-04T10:05:24.599Z,4.100000
2019-02-04T10:07:55.016Z,4.100000
2019-02-04T10:10:25.699Z,4.100000
2019-02-04T10:12:56.004Z,4.100000
2019-02-04T10:15:26.428Z,3.700000
2019-02-04T10:17:56.834Z,3.700000
2019-02-04T10:20:33.981Z,3.200000
2019-02-04T10:23:05.175Z,3.200000
2019-02-04T10:25:35.585Z,4.000000
2019-02-04T10:28:06.078Z,4.000000
2019-02-04T10:30:36.561Z,4.200000
2019-02-04T10:33:06.991Z,4.200000
2019-02-04T10:35:37.318Z,3.200000
2019-02-04T10:38:07.738Z,3.200000
2019-02-04T10:40:38.062Z,4.800000
2019-02-04T10:43:08.436Z,4.800000
2019-02-04T10:45:38.892Z,5.100000
2019-02-04T10:48:09.680Z,5.100000
2019-02-04T10:50:46.401Z,3.800000
2019-02-04T10:53:17.216Z,3.800000
2019-02-04T10:55:47.653Z,4.100000
2019-02-04T10:58:18.072Z,4.100000
2019-02-04T11:00:48.795Z,3.700000
2019-02-04T11:03:20.077Z,3.700000
2019-02-04T11:05:50.695Z,4.300000
2019-02-04T11:08:21.119Z,4.300000
2019-02-04T11:10:51.525Z,4.400000
2019-02-04T11:13:23.001Z,4.400000
2019-02-04T11:15:53.349Z,4.500000
2019-02-04T11:18:23.777Z,4.500000
2019-02-04T11:20:59.101Z,3.200000
2019-02-04T11:23:34.580Z,3.200000
2019-02-04T11:26:05.081Z,4.200000
2019-02-04T11:28:40.526Z,4.200000
2019-02-04T11:31:10.968Z,3.600000
2019-02-04T11:33:41.345Z,3.600000
2019-02-04T11:36:11.702Z,4.000000
2019-02-04T11:38:42.097Z,4.000000
2019-02-04T11:41:12.528Z,3.600000
2019-02-04T11:43:42.911Z,3.600000
2019-02-04T11:46:13.333Z,3.200000
2019-02-04T11:48:43.875Z,3.200000
2019-02-04T11:51:14.552Z,3.400000
2019-02-04T11:53:44.853Z,3.400000
2019-02-04T11:56:15.092Z,3.300000
2019-02-04T11:58:45.683Z,3.300000
2019-02-04T12:01:16.264Z,3.400000
2019-02-04T12:03:46.633Z,3.400000
2019-02-04T12:06:17.633Z,3.600000
2019-02-04T12:08:48.098Z,3.600000
2019-02-04T12:11:18.484Z,3.800000
2019-02-04T12:13:49.028Z,3.800000
2019-02-04T12:16:19.429Z,3.700000
2019-02-04T12:18:50.050Z,3.700000
2019-02-04T12:21:21.761Z,3.800000
2019-02-04T12:23:52.274Z,3.800000
2019-02-04T12:26:22.718Z,3.600000
2019-02-04T12:28:53.223Z,3.600000
2019-02-04T12:31:23.946Z,3.900000
2019-02-04T12:33:54.452Z,3.900000
2019-02-04T12:36:24.903Z,4.400000
2019-02-04T12:38:55.226Z,4.400000
2019-02-04T12:41:25.541Z,3.200000
2019-02-04T12:43:55.871Z,3.300000
2019-02-04T12:46:26.194Z,3.300000
2019-02-04T12:48:56.503Z,4.500000
2019-02-04T12:51:33.811Z,4.500000
2019-02-04T12:54:04.399Z,4.500000
2019-02-04T12:56:34.767Z,4.500000
2019-02-04T12:59:05.089Z,3.900000
2019-02-04T13:01:35.491Z,3.900000
2019-02-04T13:04:06.011Z,4.600000
2019-02-04T13:06:36.352Z,4.600000
2019-02-04T13:09:06.721Z,4.000000
2019-02-04T13:11:37.038Z,4.000000
2019-02-04T13:14:07.437Z,4.500000
2019-02-04T13:16:37.784Z,4.500000
2019-02-04T13:19:08.222Z,5.200000
2019-02-04T13:21:45.615Z,5.200000
2019-02-04T13:24:16.026Z,5.400000
2019-02-04T13:26:46.438Z,5.400000
2019-02-04T13:29:16.959Z,5.400000
2019-02-04T13:31:47.293Z,5.400000
2019-02-04T13:34:17.749Z,3.600000
2019-02-04T13:36:48.373Z,3.600000
2019-02-04T13:39:18.767Z,5.000000
2019-02-04T13:41:49.309Z,5.000000
2019-02-04T13:44:19.531Z,7.300000
2019-02-04T13:46:50.052Z,7.300000
2019-02-04T13:49:20.841Z,4.700000
2019-02-04T13:51:57.669Z,4.700000
2019-02-04T13:54:28.315Z,4.300000
2019-02-04T13:56:58.766Z,4.300000
2019-02-04T13:59:29.287Z,5.000000
2019-02-04T14:02:00.717Z,5.000000
2019-02-04T14:04:31.150Z,5.100000
2019-02-04T14:07:02.159Z,5.100000
2019-02-04T14:09:32.706Z,5.500000
2019-02-04T14:12:03.094Z,5.500000
2019-02-04T14:14:33.757Z,4.100000
2019-02-04T14:17:04.105Z,4.100000
2019-02-04T14:19:34.695Z,3.700000
2019-02-04T14:22:09.391Z,3.700000
2019-02-04T14:24:40.064Z,4.800000
2019-02-04T14:27:10.795Z,4.800000
2019-02-04T14:29:41.170Z,4.900000
2019-02-04T14:32:11.605Z,4.900000
2019-02-04T14:34:41.995Z,4.600000
2019-02-04T14:37:12.377Z,4.600000
2019-02-04T14:39:43.048Z,5.100000
2019-02-04T14:42:13.527Z,5.100000
2019-02-04T14:44:43.901Z,4.200000
2019-02-04T14:47:14.333Z,4.200000
2019-02-04T14:49:44.666Z,5.300000
2019-02-04T14:52:21.346Z,5.300000
2019-02-04T14:54:52.115Z,2.700000
2019-02-04T14:57:22.636Z,2.700000
2019-02-04T14:59:52.899Z,5.000000
2019-02-04T15:02:23.289Z,5.000000
2019-02-04T15:04:53.616Z,4.800000
2019-02-04T15:07:24.089Z,4.800000
2019-02-04T15:09:56.442Z,6.400000
2019-02-04T15:12:26.785Z,6.400000
2019-02-04T15:14:57.099Z,4.100000
2019-02-04T15:17:27.539Z,4.100000
2019-02-04T15:19:57.962Z,6.500000
2019-02-04T15:22:33.496Z,6.500000
2019-02-04T15:25:04.062Z,4.800000
2019-02-04T15:27:34.576Z,4.800000
2019-02-04T15:30:05.028Z,2.700000
2019-02-04T15:32:35.556Z,2.700000
2019-02-04T15:35:05.839Z,3.000000
2019-02-04T15:37:36.175Z,3.000000
2019-02-04T15:40:06.538Z,5.000000
2019-02-04T15:42:37.141Z,5.000000
2019-02-04T15:45:07.575Z,5.100000
2019-02-04T15:47:37.990Z,5.100000
2019-02-04T15:50:08.414Z,4.800000
2019-02-04T15:52:45.504Z,4.800000
2019-02-04T15:55:16.229Z,3.400000
2019-02-04T15:57:46.562Z,3.400000
2019-02-04T16:00:17.034Z,4.500000
2019-02-04T16:02:47.592Z,4.500000
2019-02-04T16:05:17.895Z,4.600000
2019-02-04T16:07:48.350Z,4.600000
2019-02-04T16:10:18.693Z,5.200000
2019-02-04T16:12:49.029Z,5.200000
2019-02-04T16:15:19.452Z,5.300000
2019-02-04T16:17:49.919Z,4.600000
2019-02-04T16:20:20.651Z,4.600000
2019-02-04T16:22:58.408Z,5.300000
2019-02-04T16:25:29.319Z,5.300000
2019-02-04T16:27:59.640Z,9.100000
2019-02-04T16:30:29.899Z,9.100000
2019-02-04T16:33:00.314Z,4.000000
2019-02-04T16:35:30.561Z,4.000000
2019-02-04T16:38:00.974Z,6.300000
2019-02-04T16:40:31.341Z,6.300000
2019-02-04T16:43:01.640Z,4.400000
2019-02-04T16:45:32.422Z,4.400000
2019-02-04T16:48:03.044Z,4.600000
2019-02-04T16:50:33.523Z,4.600000
2019-02-04T16:53:10.632Z,3.900000
2019-02-04T16:55:41.403Z,3.900000
2019-02-04T16:58:12.116Z,4.100000
2019-02-04T17:00:42.560Z,4.100000
2019-02-04T17:03:13.051Z,4.100000
2019-02-04T17:05:43.276Z,4.100000
2019-02-04T17:08:13.701Z,3.200000
2019-02-04T17:10:44.234Z,3.200000
2019-02-04T17:13:14.510Z,4.200000
2019-02-04T17:15:45.029Z,4.200000
2019-02-04T17:18:15.267Z,2.700000
2019-02-04T17:20:46.711Z,2.700000
2019-02-04T17:23:22.761Z,4.200000
2019-02-04T17:25:53.202Z,4.200000
2019-02-04T17:28:24.013Z,5.200000
2019-02-04T17:30:54.267Z,5.200000
2019-02-04T17:33:24.691Z,4.200000
2019-02-04T17:35:55.028Z,4.200000
2019-02-04T17:38:25.550Z,4.200000
2019-02-04T17:40:55.968Z,4.200000
2019-02-04T17:43:26.263Z,5.000000
2019-02-04T17:45:56.694Z,5.000000
2019-02-04T17:48:27.098Z,4.700000
2019-02-04T17:50:57.507Z,4.700000
2019-02-04T17:53:34.271Z,3.700000
2019-02-04T17:56:04.933Z,3.700000
2019-02-04T17:58:35.354Z,4.900000
2019-02-04T18:01:05.779Z,4.900000
2019-02-04T18:03:36.281Z,4.100000
2019-02-04T18:06:06.533Z,4.100000
2019-02-04T18:08:36.924Z,4.300000
2019-02-04T18:11:07.365Z,4.300000
2019-02-04T18:13:37.853Z,4.600000
2019-02-04T18:16:13.260Z,4.600000
2019-02-04T18:18:43.657Z,4.300000
2019-02-04T18:21:15.056Z,4.300000
2019-02-04T18:23:46.334Z,4.200000
2019-02-04T18:26:16.786Z,4.200000
2019-02-04T18:28:49.426Z,4.300000
2019-02-04T18:31:19.739Z,4.300000
2019-02-04T18:33:50.333Z,3.600000
2019-02-04T18:36:20.892Z,3.600000
2019-02-04T18:38:51.333Z,4.000000
2019-02-04T18:41:21.705Z,4.000000
2019-02-04T18:43:52.128Z,4.100000
2019-02-04T18:46:22.435Z,4.100000
2019-02-04T18:48:52.833Z,4.500000
2019-02-04T18:51:23.340Z,4.500000
2019-02-04T18:53:57.774Z,4.800000
2019-02-04T18:56:28.438Z,4.800000
2019-02-04T18:58:58.753Z,3.600000
2019-02-04T19:01:28.975Z,3.600000
2019-02-04T19:03:59.293Z,5.300000
2019-02-04T19:06:30.178Z,5.300000
2019-02-04T19:09:00.509Z,3.200000
2019-02-04T19:11:30.948Z,3.200000
2019-02-04T19:14:01.236Z,6.100000
2019-02-04T19:16:31.620Z,6.100000
2019-02-04T19:19:01.936Z,5.700000
2019-02-04T19:21:32.254Z,5.700000
2019-02-04T19:24:09.629Z,4.900000
2019-02-04T19:26:40.257Z,4.900000
2019-02-04T19:29:15.787Z,6.000000
2019-02-04T19:31:51.529Z,6.000000
2019-02-04T19:34:21.827Z,6.500000
2019-02-04T19:36:52.185Z,6.000000
2019-02-04T19:39:22.509Z,6.000000
2019-02-04T19:41:52.926Z,6.100000
2019-02-04T19:44:23.550Z,6.100000
2019-02-04T19:46:53.782Z,5.700000
2019-02-04T19:49:24.266Z,5.700000
2019-02-04T19:51:55.268Z,4.800000
2019-02-04T19:54:30.773Z,4.800000
2019-02-04T19:57:01.322Z,5.500000
2019-02-04T19:59:31.906Z,5.500000
2019-02-04T20:02:03.388Z,7.300000
2019-02-04T20:04:33.692Z,7.300000
2019-02-04T20:07:04.130Z,7.500000
2019-02-04T20:09:34.543Z,7.500000
2019-02-04T20:12:04.970Z,6.000000
2019-02-04T20:14:35.268Z,6.000000
2019-02-04T20:17:05.646Z,6.800000
2019-02-04T20:19:36.012Z,6.800000
2019-02-04T20:22:06.324Z,7.200000
2019-02-04T20:24:37.044Z,7.200000
2019-02-04T20:27:07.453Z,8.500000
2019-02-04T20:29:37.776Z,8.500000
2019-02-04T20:32:08.182Z,7.800000
2019-02-04T20:34:38.476Z,7.800000
2019-02-04T20:37:08.815Z,5.700000
2019-02-04T20:39:39.413Z,5.700000
2019-02-04T20:42:10.037Z,7.600000
2019-02-04T20:44:40.379Z,7.600000
2019-02-04T20:47:10.793Z,7.400000
2019-02-04T20:49:41.211Z,7.400000
2019-02-04T20:52:11.517Z,7.200000
2019-02-04T20:54:45.049Z,7.200000
2019-02-04T20:57:15.908Z,7.200000
2019-02-04T20:59:46.428Z,7.200000
2019-02-04T21:02:16.846Z,7.900000
2019-02-04T21:04:47.168Z,7.900000
2019-02-04T21:07:17.492Z,8.100000
2019-02-04T21:09:47.771Z,8.100000
2019-02-04T21:12:18.180Z,5.700000
2019-02-04T21:14:48.590Z,5.700000
2019-02-04T21:17:19.106Z,7.900000
2019-02-04T21:19:49.724Z,7.900000
2019-02-04T21:22:20.141Z,7.700000
2019-02-04T21:24:56.447Z,7.700000
2019-02-04T21:27:27.136Z,7.000000
2019-02-04T21:30:02.615Z,7.000000
2019-02-04T21:32:32.966Z,6.500000
2019-02-04T21:35:03.294Z,6.500000
2019-02-04T21:37:33.886Z,7.900000
2019-02-04T21:40:04.276Z,7.900000
2019-02-04T21:42:34.497Z,8.400000
2019-02-04T21:45:05.332Z,8.400000
2019-02-04T21:47:35.657Z,7.200000
2019-02-04T21:50:05.980Z,7.200000
2019-02-04T21:52:36.305Z,6.900000
2019-02-04T21:55:08.616Z,6.900000
2019-02-04T21:57:39.341Z,8.400000
2019-02-04T22:00:09.798Z,8.400000
2019-02-04T22:02:40.190Z,6.700000
2019-02-04T22:05:10.426Z,6.700000
2019-02-04T22:07:40.753Z,7.400000
2019-02-04T22:10:11.210Z,7.400000
2019-02-04T22:12:41.726Z,9.600000
2019-02-04T22:15:12.182Z,9.600000
2019-02-04T22:17:42.555Z,9.700000
2019-02-04T22:20:13.089Z,9.700000
2019-02-04T22:22:43.485Z,7.900000
2019-02-04T22:25:19.584Z,7.900000
2019-02-04T22:27:50.297Z,8.300000
2019-02-04T22:30:20.722Z,8.300000
2019-02-04T22:32:51.033Z,9.600000
2019-02-04T22:35:21.437Z,9.600000
2019-02-04T22:37:51.748Z,7.700000
2019-02-04T22:40:22.469Z,7.700000
2019-02-04T22:42:52.789Z,9.800000
2019-02-04T22:45:23.127Z,9.800000
2019-02-04T22:47:53.412Z,9.300000
2019-02-04T22:50:23.848Z,9.300000
2019-02-04T22:52:54.185Z,10.000000
2019-02-04T22:55:32.076Z,10.000000
2019-02-04T22:58:02.776Z,9.500000
2019-02-04T23:00:33.321Z,9.500000
2019-02-04T23:03:03.732Z,10.800000
2019-02-04T23:05:34.533Z,10.800000
2019-02-04T23:08:04.946Z,9.600000
2019-02-04T23:10:35.268Z,9.600000
2019-02-04T23:13:05.486Z,9.100000
2019-02-04T23:15:35.990Z,9.100000
2019-02-04T23:18:06.313Z,9.800000
2019-02-04T23:20:41.726Z,9.800000
2019-02-04T23:23:14.208Z,11.100000
2019-02-04T23:25:44.516Z,11.300000
2019-02-04T23:28:14.821Z,11.300000
2019-02-04T23:30:45.539Z,10.700000
2019-02-04T23:33:15.847Z,10.700000
2019-02-04T23:35:46.247Z,10.800000
2019-02-04T23:38:16.562Z,10.800000
2019-02-04T23:40:46.874Z,11.100000
2019-02-04T23:43:17.317Z,11.100000
2019-02-04T23:45:47.677Z,10.200000
2019-02-04T23:48:17.980Z,10.200000
2019-02-04T23:50:48.313Z,11.100000
2019-02-04T23:53:18.724Z,11.100000
2019-02-04T23:55:54.684Z,12.900000
2019-02-04T23:58:25.224Z,12.900000
